sensor_id;sensor_type;location;lat;lon;timestamp;P1;durP1;ratioP1;P2;durP2;ratioP2
6215;SDS011;3141;49.234;9.326;2023-11-18T00:00:10;10.05;;;8.27;;
6215;SDS011;3141;49.234;9.326;2023-11-18T00:01:12;13.48;;;9.15;;
6215;SDS011;3141;49.234;9.326;2023-11-18T00:02:13;11.07;;;8.40;;
6215;SDS011;3141;49.234;9.326;2023-11-18T00:03:14;11.88;;;9.07;;
6215;SDS011;3141;49.234;9.326;2023-11-18T00:04:15;11.73;;;8.95;;
6215;SDS011;3141;49.234;9.326;2023-11-18T00:05:16;13.07;;;9.00;;
6215;SDS011;3141;49.234;9.326;2023-11-18T00:06:18;10.55;;;8.63;;
6215;SDS011;3141;49.234;9.326;2023-11-18T00:07:19;11.43;;;8.05;;
6215;SDS011;3141;49.234;9.326;2023-11-18T00:08:19;13.20;;;8.82;;
6215;SDS011;3141;49.234;9.326;2023-11-18T00:09:20;10.68;;;8.63;;
6215;SDS011;3141;49.234;9.326;2023-11-18T00:10:22;15.38;;;9.60;;
6215;SDS011;3141;49.234;9.326;2023-11-18T00:11:24;11.68;;;9.20;;
6215;SDS011;3141;49.234;9.326;2023-11-18T00:12:25;14.27;;;9.23;;
6215;SDS011;3141;49.234;9.326;2023-11-18T00:13:26;11.68;;;8.52;;
6215;SDS011;3141;49.234;9.326;2023-11-18T00:14:27;15.70;;;9.65;;
6215;SDS011;3141;49.234;9.326;2023-11-18T00:15:28;13.88;;;9.32;;
6215;SDS011;3141;49.234;9.326;2023-11-18T00:16:28;12.77;;;9.20;;
6215;SDS011;3141;49.234;9.326;2023-11-18T00:17:30;11.77;;;8.65;;
6215;SDS011;3141;49.234;9.326;2023-11-18T00:18:32;12.57;;;9.50;;
6215;SDS011;3141;49.234;9.326;2023-11-18T00:19:33;14.73;;;9.40;;
6215;SDS011;3141;49.234;9.326;2023-11-18T00:20:35;11.70;;;8.82;;
6215;SDS011;3141;49.234;9.326;2023-11-18T00:21:36;12.13;;;8.95;;
6215;SDS011;3141;49.234;9.326;2023-11-18T00:22:38;13.98;;;8.70;;
6215;SDS011;3141;49.234;9.326;2023-11-18T00:23:40;15.65;;;9.40;;
6215;SDS011;3141;49.234;9.326;2023-11-18T00:24:40;13.25;;;10.02;;
6215;SDS011;3141;49.234;9.326;2023-11-18T00:25:41;11.35;;;9.32;;
6215;SDS011;3141;49.234;9.326;2023-11-18T00:26:42;14.70;;;9.50;;
6215;SDS011;3141;49.234;9.326;2023-11-18T00:27:43;15.50;;;9.07;;
6215;SDS011;3141;49.234;9.326;2023-11-18T00:28:45;13.90;;;10.60;;
6215;SDS011;3141;49.234;9.326;2023-11-18T00:29:45;13.88;;;10.27;;
6215;SDS011;3141;49.234;9.326;2023-11-18T00:30:47;17.63;;;9.88;;
6215;SDS011;3141;49.234;9.326;2023-11-18T00:31:47;14.88;;;10.00;;
6215;SDS011;3141;49.234;9.326;2023-11-18T00:32:48;11.07;;;9.45;;
6215;SDS011;3141;49.234;9.326;2023-11-18T00:33:50;11.57;;;9.30;;
6215;SDS011;3141;49.234;9.326;2023-11-18T00:34:50;12.45;;;9.63;;
6215;SDS011;3141;49.234;9.326;2023-11-18T00:35:52;12.25;;;10.10;;
6215;SDS011;3141;49.234;9.326;2023-11-18T00:36:53;11.73;;;8.85;;
6215;SDS011;3141;49.234;9.326;2023-11-18T00:37:54;14.30;;;9.75;;
6215;SDS011;3141;49.234;9.326;2023-11-18T00:38:55;14.10;;;10.23;;
6215;SDS011;3141;49.234;9.326;2023-11-18T00:39:56;14.57;;;10.48;;
6215;SDS011;3141;49.234;9.326;2023-11-18T00:40:57;11.63;;;9.50;;
6215;SDS011;3141;49.234;9.326;2023-11-18T00:41:58;13.60;;;10.02;;
6215;SDS011;3141;49.234;9.326;2023-11-18T00:42:59;13.30;;;10.68;;
6215;SDS011;3141;49.234;9.326;2023-11-18T00:44:00;15.38;;;10.80;;
6215;SDS011;3141;49.234;9.326;2023-11-18T00:45:01;12.10;;;9.55;;
6215;SDS011;3141;49.234;9.326;2023-11-18T00:46:02;12.80;;;9.80;;
6215;SDS011;3141;49.234;9.326;2023-11-18T00:47:04;18.65;;;10.85;;
6215;SDS011;3141;49.234;9.326;2023-11-18T00:48:05;11.48;;;9.15;;
6215;SDS011;3141;49.234;9.326;2023-11-18T00:49:06;14.23;;;10.52;;
6215;SDS011;3141;49.234;9.326;2023-11-18T00:50:08;13.55;;;9.00;;
6215;SDS011;3141;49.234;9.326;2023-11-18T00:51:09;18.35;;;10.15;;
6215;SDS011;3141;49.234;9.326;2023-11-18T00:52:10;12.88;;;10.20;;
6215;SDS011;3141;49.234;9.326;2023-11-18T00:53:10;12.23;;;9.70;;
6215;SDS011;3141;49.234;9.326;2023-11-18T00:54:11;16.90;;;10.27;;
6215;SDS011;3141;49.234;9.326;2023-11-18T00:55:13;12.38;;;10.38;;
6215;SDS011;3141;49.234;9.326;2023-11-18T00:56:16;12.15;;;9.43;;
6215;SDS011;3141;49.234;9.326;2023-11-18T00:57:18;13.35;;;10.60;;
6215;SDS011;3141;49.234;9.326;2023-11-18T00:58:19;22.05;;;11.23;;
6215;SDS011;3141;49.234;9.326;2023-11-18T00:59:20;12.70;;;10.10;;
6215;SDS011;3141;49.234;9.326;2023-11-18T01:00:21;13.57;;;9.88;;
6215;SDS011;3141;49.234;9.326;2023-11-18T01:01:22;14.20;;;10.07;;
6215;SDS011;3141;49.234;9.326;2023-11-18T01:02:23;12.57;;;9.50;;
6215;SDS011;3141;49.234;9.326;2023-11-18T01:03:24;15.45;;;9.95;;
6215;SDS011;3141;49.234;9.326;2023-11-18T01:04:26;13.55;;;9.07;;
6215;SDS011;3141;49.234;9.326;2023-11-18T01:05:27;14.00;;;9.73;;
6215;SDS011;3141;49.234;9.326;2023-11-18T01:06:27;13.38;;;10.48;;
6215;SDS011;3141;49.234;9.326;2023-11-18T01:07:28;31.90;;;16.52;;
6215;SDS011;3141;49.234;9.326;2023-11-18T01:08:29;28.05;;;17.08;;
6215;SDS011;3141;49.234;9.326;2023-11-18T01:09:30;18.85;;;12.80;;
6215;SDS011;3141;49.234;9.326;2023-11-18T01:10:37;15.38;;;11.02;;
6215;SDS011;3141;49.234;9.326;2023-11-18T01:11:38;13.88;;;10.45;;
6215;SDS011;3141;49.234;9.326;2023-11-18T01:12:40;16.05;;;10.15;;
6215;SDS011;3141;49.234;9.326;2023-11-18T01:13:41;13.93;;;9.73;;
6215;SDS011;3141;49.234;9.326;2023-11-18T01:14:42;12.65;;;9.88;;
6215;SDS011;3141;49.234;9.326;2023-11-18T01:15:43;14.35;;;10.50;;
6215;SDS011;3141;49.234;9.326;2023-11-18T01:16:44;13.68;;;11.05;;
6215;SDS011;3141;49.234;9.326;2023-11-18T01:17:46;15.48;;;10.05;;
6215;SDS011;3141;49.234;9.326;2023-11-18T01:18:47;17.17;;;11.57;;
6215;SDS011;3141;49.234;9.326;2023-11-18T01:19:48;18.58;;;12.30;;
6215;SDS011;3141;49.234;9.326;2023-11-18T01:20:49;16.45;;;11.25;;
6215;SDS011;3141;49.234;9.326;2023-11-18T01:21:50;11.55;;;9.85;;
6215;SDS011;3141;49.234;9.326;2023-11-18T01:22:54;14.02;;;10.70;;
6215;SDS011;3141;49.234;9.326;2023-11-18T01:23:54;15.48;;;9.82;;
6215;SDS011;3141;49.234;9.326;2023-11-18T01:24:55;14.60;;;9.68;;
6215;SDS011;3141;49.234;9.326;2023-11-18T01:25:58;17.52;;;10.82;;
6215;SDS011;3141;49.234;9.326;2023-11-18T01:27:00;18.00;;;11.82;;
6215;SDS011;3141;49.234;9.326;2023-11-18T01:28:01;16.95;;;10.77;;
6215;SDS011;3141;49.234;9.326;2023-11-18T01:29:04;18.25;;;10.90;;
6215;SDS011;3141;49.234;9.326;2023-11-18T01:30:05;17.70;;;11.20;;
6215;SDS011;3141;49.234;9.326;2023-11-18T01:31:06;15.80;;;10.88;;
6215;SDS011;3141;49.234;9.326;2023-11-18T01:32:10;16.63;;;10.75;;
6215;SDS011;3141;49.234;9.326;2023-11-18T01:33:12;17.92;;;10.13;;
6215;SDS011;3141;49.234;9.326;2023-11-18T01:34:15;14.88;;;10.95;;
6215;SDS011;3141;49.234;9.326;2023-11-18T01:35:17;16.98;;;11.82;;
6215;SDS011;3141;49.234;9.326;2023-11-18T01:36:18;13.98;;;10.73;;
6215;SDS011;3141;49.234;9.326;2023-11-18T01:37:19;12.10;;;9.98;;
6215;SDS011;3141;49.234;9.326;2023-11-18T01:38:22;18.08;;;11.05;;
6215;SDS011;3141;49.234;9.326;2023-11-18T01:39:22;16.35;;;10.45;;
6215;SDS011;3141;49.234;9.326;2023-11-18T01:40:25;15.20;;;10.30;;
6215;SDS011;3141;49.234;9.326;2023-11-18T01:41:26;18.15;;;10.80;;
6215;SDS011;3141;49.234;9.326;2023-11-18T01:42:27;14.57;;;11.65;;
6215;SDS011;3141;49.234;9.326;2023-11-18T01:43:28;16.38;;;11.02;;
6215;SDS011;3141;49.234;9.326;2023-11-18T01:44:29;16.17;;;11.80;;
6215;SDS011;3141;49.234;9.326;2023-11-18T01:45:30;18.02;;;12.57;;
6215;SDS011;3141;49.234;9.326;2023-11-18T01:46:31;15.27;;;11.80;;
6215;SDS011;3141;49.234;9.326;2023-11-18T01:47:32;15.63;;;11.63;;
6215;SDS011;3141;49.234;9.326;2023-11-18T01:48:33;22.42;;;11.13;;
6215;SDS011;3141;49.234;9.326;2023-11-18T01:49:34;15.00;;;11.63;;
6215;SDS011;3141;49.234;9.326;2023-11-18T01:50:41;17.92;;;12.65;;
6215;SDS011;3141;49.234;9.326;2023-11-18T01:51:45;14.75;;;11.98;;
6215;SDS011;3141;49.234;9.326;2023-11-18T01:52:47;17.80;;;12.20;;
6215;SDS011;3141;49.234;9.326;2023-11-18T01:53:48;15.40;;;11.23;;
6215;SDS011;3141;49.234;9.326;2023-11-18T01:54:50;15.80;;;11.57;;
6215;SDS011;3141;49.234;9.326;2023-11-18T01:55:55;16.75;;;11.68;;
6215;SDS011;3141;49.234;9.326;2023-11-18T01:56:56;14.63;;;11.77;;
6215;SDS011;3141;49.234;9.326;2023-11-18T01:57:57;16.17;;;11.38;;
6215;SDS011;3141;49.234;9.326;2023-11-18T01:58:58;17.27;;;11.57;;
6215;SDS011;3141;49.234;9.326;2023-11-18T02:00:00;18.13;;;12.70;;
6215;SDS011;3141;49.234;9.326;2023-11-18T02:01:04;14.65;;;11.63;;
6215;SDS011;3141;49.234;9.326;2023-11-18T02:02:08;18.27;;;11.85;;
6215;SDS011;3141;49.234;9.326;2023-11-18T02:03:09;17.17;;;12.63;;
6215;SDS011;3141;49.234;9.326;2023-11-18T02:04:10;16.58;;;11.55;;
6215;SDS011;3141;49.234;9.326;2023-11-18T02:05:11;14.75;;;11.70;;
6215;SDS011;3141;49.234;9.326;2023-11-18T02:06:13;17.15;;;12.52;;
6215;SDS011;3141;49.234;9.326;2023-11-18T02:07:15;14.70;;;12.15;;
6215;SDS011;3141;49.234;9.326;2023-11-18T02:08:16;17.48;;;11.82;;
6215;SDS011;3141;49.234;9.326;2023-11-18T02:09:19;18.83;;;12.50;;
6215;SDS011;3141;49.234;9.326;2023-11-18T02:10:31;17.48;;;12.77;;
6215;SDS011;3141;49.234;9.326;2023-11-18T02:11:37;16.38;;;12.35;;
6215;SDS011;3141;49.234;9.326;2023-11-18T02:12:53;18.83;;;12.45;;
6215;SDS011;3141;49.234;9.326;2023-11-18T02:14:00;18.85;;;13.00;;
6215;SDS011;3141;49.234;9.326;2023-11-18T02:15:05;17.48;;;12.02;;
6215;SDS011;3141;49.234;9.326;2023-11-18T02:16:10;18.98;;;12.90;;
6215;SDS011;3141;49.234;9.326;2023-11-18T02:17:14;19.27;;;13.50;;
6215;SDS011;3141;49.234;9.326;2023-11-18T02:18:18;18.15;;;13.32;;
6215;SDS011;3141;49.234;9.326;2023-11-18T02:19:20;19.30;;;14.48;;
6215;SDS011;3141;49.234;9.326;2023-11-18T02:20:24;20.95;;;13.88;;
6215;SDS011;3141;49.234;9.326;2023-11-18T02:21:27;19.30;;;13.50;;
6215;SDS011;3141;49.234;9.326;2023-11-18T02:22:30;23.33;;;14.27;;
6215;SDS011;3141;49.234;9.326;2023-11-18T02:23:31;18.13;;;13.02;;
6215;SDS011;3141;49.234;9.326;2023-11-18T02:24:32;17.10;;;12.65;;
6215;SDS011;3141;49.234;9.326;2023-11-18T02:25:42;22.70;;;13.88;;
6215;SDS011;3141;49.234;9.326;2023-11-18T02:26:45;17.00;;;13.10;;
6215;SDS011;3141;49.234;9.326;2023-11-18T02:27:46;19.40;;;13.70;;
6215;SDS011;3141;49.234;9.326;2023-11-18T02:28:47;22.25;;;13.25;;
6215;SDS011;3141;49.234;9.326;2023-11-18T02:29:48;20.42;;;13.32;;
6215;SDS011;3141;49.234;9.326;2023-11-18T02:30:50;23.52;;;13.43;;
6215;SDS011;3141;49.234;9.326;2023-11-18T02:31:57;17.10;;;13.02;;
6215;SDS011;3141;49.234;9.326;2023-11-18T02:33:18;18.80;;;14.23;;
6215;SDS011;3141;49.234;9.326;2023-11-18T02:34:30;19.70;;;13.60;;
6215;SDS011;3141;49.234;9.326;2023-11-18T02:35:35;18.85;;;14.48;;
6215;SDS011;3141;49.234;9.326;2023-11-18T02:36:43;22.67;;;15.18;;
6215;SDS011;3141;49.234;9.326;2023-11-18T02:37:47;24.55;;;14.68;;
6215;SDS011;3141;49.234;9.326;2023-11-18T02:38:51;21.58;;;14.20;;
6215;SDS011;3141;49.234;9.326;2023-11-18T02:39:57;19.63;;;14.15;;
6215;SDS011;3141;49.234;9.326;2023-11-18T02:41:06;21.05;;;15.05;;
6215;SDS011;3141;49.234;9.326;2023-11-18T02:42:11;23.67;;;14.80;;
6215;SDS011;3141;49.234;9.326;2023-11-18T02:43:13;19.02;;;15.35;;
6215;SDS011;3141;49.234;9.326;2023-11-18T02:44:15;26.23;;;15.75;;
6215;SDS011;3141;49.234;9.326;2023-11-18T02:45:18;21.48;;;14.60;;
6215;SDS011;3141;49.234;9.326;2023-11-18T02:46:20;20.60;;;15.02;;
6215;SDS011;3141;49.234;9.326;2023-11-18T02:47:23;20.63;;;14.93;;
6215;SDS011;3141;49.234;9.326;2023-11-18T02:48:26;20.90;;;15.38;;
6215;SDS011;3141;49.234;9.326;2023-11-18T02:49:29;21.08;;;14.70;;
6215;SDS011;3141;49.234;9.326;2023-11-18T02:50:30;21.33;;;15.02;;
6215;SDS011;3141;49.234;9.326;2023-11-18T02:51:32;22.65;;;15.35;;
6215;SDS011;3141;49.234;9.326;2023-11-18T02:52:39;22.40;;;15.18;;
6215;SDS011;3141;49.234;9.326;2023-11-18T02:53:40;19.33;;;14.30;;
6215;SDS011;3141;49.234;9.326;2023-11-18T02:54:42;24.75;;;15.68;;
6215;SDS011;3141;49.234;9.326;2023-11-18T02:55:42;21.95;;;15.00;;
6215;SDS011;3141;49.234;9.326;2023-11-18T02:56:44;21.20;;;15.27;;
6215;SDS011;3141;49.234;9.326;2023-11-18T02:57:45;20.83;;;16.33;;
6215;SDS011;3141;49.234;9.326;2023-11-18T02:58:47;20.30;;;14.55;;
6215;SDS011;3141;49.234;9.326;2023-11-18T02:59:48;22.20;;;15.45;;
6215;SDS011;3141;49.234;9.326;2023-11-18T03:00:50;23.75;;;15.85;;
6215;SDS011;3141;49.234;9.326;2023-11-18T03:01:53;26.10;;;16.65;;
6215;SDS011;3141;49.234;9.326;2023-11-18T03:02:55;21.90;;;16.02;;
6215;SDS011;3141;49.234;9.326;2023-11-18T03:03:57;23.05;;;15.25;;
6215;SDS011;3141;49.234;9.326;2023-11-18T03:04:59;21.20;;;15.10;;
6215;SDS011;3141;49.234;9.326;2023-11-18T03:06:00;19.50;;;14.52;;
6215;SDS011;3141;49.234;9.326;2023-11-18T03:07:01;24.38;;;15.70;;
6215;SDS011;3141;49.234;9.326;2023-11-18T03:08:02;23.77;;;16.00;;
6215;SDS011;3141;49.234;9.326;2023-11-18T03:09:06;21.35;;;16.70;;
6215;SDS011;3141;49.234;9.326;2023-11-18T03:10:08;21.20;;;15.95;;
6215;SDS011;3141;49.234;9.326;2023-11-18T03:11:12;21.88;;;15.45;;
6215;SDS011;3141;49.234;9.326;2023-11-18T03:12:12;22.75;;;16.08;;
6215;SDS011;3141;49.234;9.326;2023-11-18T03:13:13;22.17;;;15.75;;
6215;SDS011;3141;49.234;9.326;2023-11-18T03:14:15;20.85;;;15.27;;
6215;SDS011;3141;49.234;9.326;2023-11-18T03:15:16;24.20;;;16.75;;
6215;SDS011;3141;49.234;9.326;2023-11-18T03:16:17;22.10;;;16.58;;
6215;SDS011;3141;49.234;9.326;2023-11-18T03:17:18;25.60;;;16.45;;
6215;SDS011;3141;49.234;9.326;2023-11-18T03:18:20;22.98;;;16.58;;
6215;SDS011;3141;49.234;9.326;2023-11-18T03:19:21;22.02;;;16.52;;
6215;SDS011;3141;49.234;9.326;2023-11-18T03:20:23;30.98;;;17.83;;
6215;SDS011;3141;49.234;9.326;2023-11-18T03:21:24;21.20;;;15.50;;
6215;SDS011;3141;49.234;9.326;2023-11-18T03:22:27;25.20;;;16.95;;
6215;SDS011;3141;49.234;9.326;2023-11-18T03:23:28;22.13;;;16.13;;
6215;SDS011;3141;49.234;9.326;2023-11-18T03:24:29;25.50;;;16.95;;
6215;SDS011;3141;49.234;9.326;2023-11-18T03:25:30;27.02;;;17.13;;
6215;SDS011;3141;49.234;9.326;2023-11-18T03:26:31;28.60;;;17.90;;
6215;SDS011;3141;49.234;9.326;2023-11-18T03:27:33;28.92;;;17.58;;
6215;SDS011;3141;49.234;9.326;2023-11-18T03:28:34;24.23;;;15.68;;
6215;SDS011;3141;49.234;9.326;2023-11-18T03:29:37;23.65;;;15.55;;
6215;SDS011;3141;49.234;9.326;2023-11-18T03:30:38;23.85;;;16.48;;
6215;SDS011;3141;49.234;9.326;2023-11-18T03:31:39;23.27;;;15.98;;
6215;SDS011;3141;49.234;9.326;2023-11-18T03:32:40;25.02;;;16.27;;
6215;SDS011;3141;49.234;9.326;2023-11-18T03:33:41;22.25;;;16.90;;
6215;SDS011;3141;49.234;9.326;2023-11-18T03:34:42;25.15;;;17.02;;
6215;SDS011;3141;49.234;9.326;2023-11-18T03:35:44;26.45;;;16.25;;
6215;SDS011;3141;49.234;9.326;2023-11-18T03:36:45;22.38;;;15.45;;
6215;SDS011;3141;49.234;9.326;2023-11-18T03:37:47;27.70;;;17.45;;
6215;SDS011;3141;49.234;9.326;2023-11-18T03:38:48;23.20;;;16.65;;
6215;SDS011;3141;49.234;9.326;2023-11-18T03:39:50;21.42;;;15.35;;
6215;SDS011;3141;49.234;9.326;2023-11-18T03:40:51;23.15;;;16.02;;
6215;SDS011;3141;49.234;9.326;2023-11-18T03:41:52;22.35;;;16.58;;
6215;SDS011;3141;49.234;9.326;2023-11-18T03:42:53;23.10;;;16.35;;
6215;SDS011;3141;49.234;9.326;2023-11-18T03:43:54;23.55;;;17.13;;
6215;SDS011;3141;49.234;9.326;2023-11-18T03:44:55;23.67;;;16.77;;
6215;SDS011;3141;49.234;9.326;2023-11-18T03:45:56;21.33;;;16.73;;
6215;SDS011;3141;49.234;9.326;2023-11-18T03:46:57;22.48;;;17.05;;
6215;SDS011;3141;49.234;9.326;2023-11-18T03:47:58;24.35;;;16.38;;
6215;SDS011;3141;49.234;9.326;2023-11-18T03:49:00;24.00;;;16.15;;
6215;SDS011;3141;49.234;9.326;2023-11-18T03:50:01;27.92;;;16.48;;
6215;SDS011;3141;49.234;9.326;2023-11-18T03:51:02;23.45;;;17.08;;
6215;SDS011;3141;49.234;9.326;2023-11-18T03:52:04;23.17;;;16.55;;
6215;SDS011;3141;49.234;9.326;2023-11-18T03:53:05;24.88;;;16.88;;
6215;SDS011;3141;49.234;9.326;2023-11-18T03:54:06;20.63;;;15.45;;
6215;SDS011;3141;49.234;9.326;2023-11-18T03:55:09;20.58;;;15.52;;
6215;SDS011;3141;49.234;9.326;2023-11-18T03:56:10;21.85;;;16.23;;
6215;SDS011;3141;49.234;9.326;2023-11-18T03:57:11;23.88;;;15.45;;
6215;SDS011;3141;49.234;9.326;2023-11-18T03:58:12;21.20;;;15.85;;
6215;SDS011;3141;49.234;9.326;2023-11-18T03:59:12;22.15;;;15.45;;
6215;SDS011;3141;49.234;9.326;2023-11-18T04:00:17;23.27;;;15.07;;
6215;SDS011;3141;49.234;9.326;2023-11-18T04:01:24;22.20;;;16.45;;
6215;SDS011;3141;49.234;9.326;2023-11-18T04:02:29;20.02;;;15.05;;
6215;SDS011;3141;49.234;9.326;2023-11-18T04:03:30;23.50;;;15.75;;
6215;SDS011;3141;49.234;9.326;2023-11-18T04:04:32;23.02;;;16.20;;
6215;SDS011;3141;49.234;9.326;2023-11-18T04:05:33;21.27;;;15.57;;
6215;SDS011;3141;49.234;9.326;2023-11-18T04:06:35;26.23;;;16.23;;
6215;SDS011;3141;49.234;9.326;2023-11-18T04:07:36;23.50;;;15.40;;
6215;SDS011;3141;49.234;9.326;2023-11-18T04:08:37;22.67;;;16.98;;
6215;SDS011;3141;49.234;9.326;2023-11-18T04:09:38;21.50;;;15.82;;
6215;SDS011;3141;49.234;9.326;2023-11-18T04:10:41;21.73;;;15.85;;
6215;SDS011;3141;49.234;9.326;2023-11-18T04:11:42;22.55;;;16.20;;
6215;SDS011;3141;49.234;9.326;2023-11-18T04:12:45;21.63;;;16.23;;
6215;SDS011;3141;49.234;9.326;2023-11-18T04:13:48;20.25;;;15.30;;
6215;SDS011;3141;49.234;9.326;2023-11-18T04:14:49;22.65;;;15.90;;
6215;SDS011;3141;49.234;9.326;2023-11-18T04:15:50;22.35;;;16.13;;
6215;SDS011;3141;49.234;9.326;2023-11-18T04:16:52;22.20;;;15.90;;
6215;SDS011;3141;49.234;9.326;2023-11-18T04:17:54;23.02;;;15.88;;
6215;SDS011;3141;49.234;9.326;2023-11-18T04:18:55;25.65;;;17.38;;
6215;SDS011;3141;49.234;9.326;2023-11-18T04:19:56;23.55;;;16.20;;
6215;SDS011;3141;49.234;9.326;2023-11-18T04:20:57;25.02;;;17.15;;
6215;SDS011;3141;49.234;9.326;2023-11-18T04:21:58;21.48;;;16.50;;
6215;SDS011;3141;49.234;9.326;2023-11-18T04:22:59;22.73;;;16.83;;
6215;SDS011;3141;49.234;9.326;2023-11-18T04:24:00;26.17;;;17.35;;
6215;SDS011;3141;49.234;9.326;2023-11-18T04:25:01;22.80;;;17.65;;
6215;SDS011;3141;49.234;9.326;2023-11-18T04:26:03;23.15;;;16.60;;
6215;SDS011;3141;49.234;9.326;2023-11-18T04:27:05;24.05;;;18.65;;
6215;SDS011;3141;49.234;9.326;2023-11-18T04:28:06;27.08;;;16.42;;
6215;SDS011;3141;49.234;9.326;2023-11-18T04:29:07;26.17;;;17.65;;
6215;SDS011;3141;49.234;9.326;2023-11-18T04:30:08;24.08;;;16.95;;
6215;SDS011;3141;49.234;9.326;2023-11-18T04:31:09;26.58;;;17.42;;
6215;SDS011;3141;49.234;9.326;2023-11-18T04:32:11;26.48;;;17.80;;
6215;SDS011;3141;49.234;9.326;2023-11-18T04:33:14;20.17;;;16.35;;
6215;SDS011;3141;49.234;9.326;2023-11-18T04:34:15;26.23;;;18.58;;
6215;SDS011;3141;49.234;9.326;2023-11-18T04:35:17;25.45;;;17.45;;
6215;SDS011;3141;49.234;9.326;2023-11-18T04:36:18;24.70;;;17.40;;
6215;SDS011;3141;49.234;9.326;2023-11-18T04:37:19;22.08;;;17.13;;
6215;SDS011;3141;49.234;9.326;2023-11-18T04:38:20;25.48;;;17.25;;
6215;SDS011;3141;49.234;9.326;2023-11-18T04:39:22;23.95;;;17.17;;
6215;SDS011;3141;49.234;9.326;2023-11-18T04:40:23;22.08;;;16.73;;
6215;SDS011;3141;49.234;9.326;2023-11-18T04:41:24;25.77;;;16.70;;
6215;SDS011;3141;49.234;9.326;2023-11-18T04:42:25;24.95;;;17.23;;
6215;SDS011;3141;49.234;9.326;2023-11-18T04:43:26;24.05;;;17.60;;
6215;SDS011;3141;49.234;9.326;2023-11-18T04:44:27;23.48;;;17.85;;
6215;SDS011;3141;49.234;9.326;2023-11-18T04:45:27;26.38;;;18.60;;
6215;SDS011;3141;49.234;9.326;2023-11-18T04:46:28;22.25;;;17.50;;
6215;SDS011;3141;49.234;9.326;2023-11-18T04:47:29;22.35;;;16.85;;
6215;SDS011;3141;49.234;9.326;2023-11-18T04:48:30;24.08;;;17.30;;
6215;SDS011;3141;49.234;9.326;2023-11-18T04:49:31;24.10;;;16.40;;
6215;SDS011;3141;49.234;9.326;2023-11-18T04:50:32;23.60;;;16.77;;
6215;SDS011;3141;49.234;9.326;2023-11-18T04:51:33;27.60;;;16.83;;
6215;SDS011;3141;49.234;9.326;2023-11-18T04:52:34;22.83;;;17.30;;
6215;SDS011;3141;49.234;9.326;2023-11-18T04:53:35;22.95;;;16.73;;
6215;SDS011;3141;49.234;9.326;2023-11-18T04:54:36;23.98;;;17.10;;
6215;SDS011;3141;49.234;9.326;2023-11-18T04:55:37;23.85;;;16.88;;
6215;SDS011;3141;49.234;9.326;2023-11-18T04:56:38;22.92;;;17.10;;
6215;SDS011;3141;49.234;9.326;2023-11-18T04:57:39;24.15;;;16.60;;
6215;SDS011;3141;49.234;9.326;2023-11-18T04:58:40;24.17;;;16.75;;
6215;SDS011;3141;49.234;9.326;2023-11-18T04:59:42;22.98;;;16.70;;
6215;SDS011;3141;49.234;9.326;2023-11-18T05:00:43;25.30;;;18.17;;
6215;SDS011;3141;49.234;9.326;2023-11-18T05:01:44;22.60;;;17.20;;
6215;SDS011;3141;49.234;9.326;2023-11-18T05:02:46;23.85;;;17.83;;
6215;SDS011;3141;49.234;9.326;2023-11-18T05:03:48;23.27;;;16.73;;
6215;SDS011;3141;49.234;9.326;2023-11-18T05:04:49;23.23;;;16.60;;
6215;SDS011;3141;49.234;9.326;2023-11-18T05:05:50;22.90;;;16.77;;
6215;SDS011;3141;49.234;9.326;2023-11-18T05:06:51;28.88;;;18.02;;
6215;SDS011;3141;49.234;9.326;2023-11-18T05:07:52;23.83;;;18.02;;
6215;SDS011;3141;49.234;9.326;2023-11-18T05:08:53;25.38;;;17.92;;
6215;SDS011;3141;49.234;9.326;2023-11-18T05:09:55;23.85;;;16.80;;
6215;SDS011;3141;49.234;9.326;2023-11-18T05:10:55;24.27;;;16.63;;
6215;SDS011;3141;49.234;9.326;2023-11-18T05:11:58;22.75;;;17.38;;
6215;SDS011;3141;49.234;9.326;2023-11-18T05:12:59;24.25;;;17.38;;
6215;SDS011;3141;49.234;9.326;2023-11-18T05:14:00;23.33;;;17.38;;
6215;SDS011;3141;49.234;9.326;2023-11-18T05:15:05;21.83;;;16.02;;
6215;SDS011;3141;49.234;9.326;2023-11-18T05:16:08;23.55;;;17.25;;
6215;SDS011;3141;49.234;9.326;2023-11-18T05:17:11;24.13;;;16.63;;
6215;SDS011;3141;49.234;9.326;2023-11-18T05:18:12;20.77;;;15.70;;
6215;SDS011;3141;49.234;9.326;2023-11-18T05:19:17;23.30;;;16.70;;
6215;SDS011;3141;49.234;9.326;2023-11-18T05:20:18;23.38;;;17.58;;
6215;SDS011;3141;49.234;9.326;2023-11-18T05:21:20;23.58;;;16.65;;
6215;SDS011;3141;49.234;9.326;2023-11-18T05:22:21;24.25;;;16.52;;
6215;SDS011;3141;49.234;9.326;2023-11-18T05:23:22;25.20;;;16.67;;
6215;SDS011;3141;49.234;9.326;2023-11-18T05:24:23;22.48;;;15.60;;
6215;SDS011;3141;49.234;9.326;2023-11-18T05:25:24;21.33;;;16.23;;
6215;SDS011;3141;49.234;9.326;2023-11-18T05:26:25;23.73;;;15.68;;
6215;SDS011;3141;49.234;9.326;2023-11-18T05:27:27;20.23;;;16.10;;
6215;SDS011;3141;49.234;9.326;2023-11-18T05:28:28;23.70;;;16.27;;
6215;SDS011;3141;49.234;9.326;2023-11-18T05:29:31;23.13;;;16.13;;
6215;SDS011;3141;49.234;9.326;2023-11-18T05:30:33;22.52;;;15.88;;
6215;SDS011;3141;49.234;9.326;2023-11-18T05:31:33;22.75;;;15.90;;
6215;SDS011;3141;49.234;9.326;2023-11-18T05:32:34;22.80;;;16.40;;
6215;SDS011;3141;49.234;9.326;2023-11-18T05:33:36;22.15;;;15.57;;
6215;SDS011;3141;49.234;9.326;2023-11-18T05:34:37;22.42;;;16.00;;
6215;SDS011;3141;49.234;9.326;2023-11-18T05:35:38;20.80;;;16.17;;
6215;SDS011;3141;49.234;9.326;2023-11-18T05:36:43;19.98;;;15.32;;
6215;SDS011;3141;49.234;9.326;2023-11-18T05:37:44;20.17;;;15.27;;
6215;SDS011;3141;49.234;9.326;2023-11-18T05:38:45;21.58;;;14.88;;
6215;SDS011;3141;49.234;9.326;2023-11-18T05:39:48;25.50;;;16.17;;
6215;SDS011;3141;49.234;9.326;2023-11-18T05:40:54;21.02;;;15.75;;
6215;SDS011;3141;49.234;9.326;2023-11-18T05:41:57;22.05;;;15.82;;
6215;SDS011;3141;49.234;9.326;2023-11-18T05:42:58;21.13;;;15.07;;
6215;SDS011;3141;49.234;9.326;2023-11-18T05:43:59;22.83;;;16.50;;
6215;SDS011;3141;49.234;9.326;2023-11-18T05:45:01;20.88;;;15.45;;
6215;SDS011;3141;49.234;9.326;2023-11-18T05:46:02;17.98;;;14.18;;
6215;SDS011;3141;49.234;9.326;2023-11-18T05:47:23;18.55;;;14.25;;
6215;SDS011;3141;49.234;9.326;2023-11-18T05:48:24;17.48;;;13.40;;
6215;SDS011;3141;49.234;9.326;2023-11-18T05:49:25;19.92;;;13.90;;
6215;SDS011;3141;49.234;9.326;2023-11-18T05:50:26;21.88;;;14.25;;
6215;SDS011;3141;49.234;9.326;2023-11-18T05:51:27;18.48;;;13.88;;
6215;SDS011;3141;49.234;9.326;2023-11-18T05:52:29;18.02;;;12.85;;
6215;SDS011;3141;49.234;9.326;2023-11-18T05:53:30;17.23;;;13.68;;
6215;SDS011;3141;49.234;9.326;2023-11-18T05:54:31;18.30;;;13.73;;
6215;SDS011;3141;49.234;9.326;2023-11-18T05:55:32;17.13;;;12.60;;
6215;SDS011;3141;49.234;9.326;2023-11-18T05:56:33;20.70;;;12.85;;
6215;SDS011;3141;49.234;9.326;2023-11-18T05:57:34;17.25;;;12.07;;
6215;SDS011;3141;49.234;9.326;2023-11-18T05:58:36;14.98;;;12.60;;
6215;SDS011;3141;49.234;9.326;2023-11-18T05:59:39;15.95;;;12.70;;
6215;SDS011;3141;49.234;9.326;2023-11-18T06:00:40;14.93;;;12.07;;
6215;SDS011;3141;49.234;9.326;2023-11-18T06:01:41;16.27;;;12.90;;
6215;SDS011;3141;49.234;9.326;2023-11-18T06:02:42;18.23;;;13.07;;
6215;SDS011;3141;49.234;9.326;2023-11-18T06:03:43;19.52;;;13.77;;
6215;SDS011;3141;49.234;9.326;2023-11-18T06:04:45;25.73;;;14.63;;
6215;SDS011;3141;49.234;9.326;2023-11-18T06:05:47;23.55;;;12.70;;
6215;SDS011;3141;49.234;9.326;2023-11-18T06:06:48;17.45;;;13.45;;
6215;SDS011;3141;49.234;9.326;2023-11-18T06:07:49;14.35;;;11.70;;
6215;SDS011;3141;49.234;9.326;2023-11-18T06:08:51;17.48;;;13.10;;
6215;SDS011;3141;49.234;9.326;2023-11-18T06:09:52;18.77;;;12.25;;
6215;SDS011;3141;49.234;9.326;2023-11-18T06:10:53;18.20;;;13.95;;
6215;SDS011;3141;49.234;9.326;2023-11-18T06:11:57;18.40;;;13.35;;
6215;SDS011;3141;49.234;9.326;2023-11-18T06:12:58;21.95;;;13.25;;
6215;SDS011;3141;49.234;9.326;2023-11-18T06:13:58;19.30;;;13.98;;